Airfield :
LOGIN :

Register | Disclaimer

   EN    FR    IT 

 










Legend :    VFR   Marginal VFR   IFR   Intensive IFR   Very Intensive IFR
Visi :
Ceiling :
>= 8 km
>= 3000ft
5 to 8 km
1000 to 3000 ft
1500m to 5 km
500 to 1000 ft
800 to 1500m
200 to 500 ft
< 800m
< 200 ft
Symbols :   Thunderstorms  Fog  Heavy snow  Heavy precipitations  Wind > 20 kt
SIGMETs :     Misc.  Thunderstorms  Icing  Turbulence  Mountain Waves  Volcanic Ashes







- Airport Elevation : 16 ft
- IATA code : SDR


LEXJ - Santander Cantabria

CURRENT METAR :
  • 160800Z 27003KT 9999 SCT024 03/03 Q1017

EXPIRED METARs :
  • 160730Z VRB02KT 9999 FEW018 03/03 Q1017
  • 160700Z 00000KT CAVOK 04/04 Q1016
  • 160630Z 19001KT CAVOK 03/03 Q1016
  • 160600Z VRB02KT CAVOK 03/03 Q1016
  • 160530Z 18003KT 7000 NSC 03/03 Q1016

TAF AMD TAF LEXJ
Valid from the 16 at 06:00 until the 17 at 03:00 UTC


160626Z 1606/1703 VRB05KT 9999 FEW030 TX12/1614Z TN03/1606Z
PROB30
TEMPO 1606/1608 3000 BR
PROB30
TEMPO 1606/1614 24010KT
BECMG 1610/1614 30010KT
TEMPO 1621/1703 3000 RA BKN010
No reported NOTAMs for that airfield.



MET'MAP, your aeronautical weather chart ! - Copyright ORBIFLY December 2007 - Disclaimer

ORBIFLY MET'MAP TEAM :

Programming & Development : Alexandra Zaïnal
Concept & Development : Baudouin d'Aumeries
Co-Development & Prog : Marc-Olivier Méhu
Technical & hardware support : Manuel Goepfert

Contact : metmap@orbifly.com




SOURCES & CREDITS :

   NOAA